sensor_id;sensor_type;location;lat;lon;timestamp;temperature;humidity
30150;DHT22;16962;48.646;9.026;2024-02-16T00:02:46;10.20;99.90
30150;DHT22;16962;48.646;9.026;2024-02-16T00:05:34;10.10;99.90
30150;DHT22;16962;48.646;9.026;2024-02-16T00:08:23;10.10;99.90
30150;DHT22;16962;48.646;9.026;2024-02-16T00:11:12;10.20;99.90
30150;DHT22;16962;48.646;9.026;2024-02-16T00:13:59;10.10;99.90
30150;DHT22;16962;48.646;9.026;2024-02-16T00:16:47;10.10;99.90
30150;DHT22;16962;48.646;9.026;2024-02-16T00:19:35;10.10;99.90
30150;DHT22;16962;48.646;9.026;2024-02-16T00:22:23;10.10;99.90
30150;DHT22;16962;48.646;9.026;2024-02-16T00:25:11;10.20;99.90
30150;DHT22;16962;48.646;9.026;2024-02-16T00:28:00;10.20;99.90
30150;DHT22;16962;48.646;9.026;2024-02-16T00:30:47;10.20;99.90
30150;DHT22;16962;48.646;9.026;2024-02-16T00:33:36;10.30;99.90
30150;DHT22;16962;48.646;9.026;2024-02-16T00:36:27;10.30;99.90
30150;DHT22;16962;48.646;9.026;2024-02-16T00:39:15;10.30;99.90
30150;DHT22;16962;48.646;9.026;2024-02-16T00:42:05;10.30;99.90
30150;DHT22;16962;48.646;9.026;2024-02-16T00:44:53;10.40;99.90
30150;DHT22;16962;48.646;9.026;2024-02-16T00:47:41;10.40;99.90
30150;DHT22;16962;48.646;9.026;2024-02-16T00:50:30;10.40;99.90
30150;DHT22;16962;48.646;9.026;2024-02-16T00:53:20;10.40;99.90
30150;DHT22;16962;48.646;9.026;2024-02-16T00:56:07;10.40;99.90
30150;DHT22;16962;48.646;9.026;2024-02-16T00:58:56;10.30;99.90
30150;DHT22;16962;48.646;9.026;2024-02-16T01:01:43;10.30;99.90
30150;DHT22;16962;48.646;9.026;2024-02-16T01:04:33;10.40;99.90
30150;DHT22;16962;48.646;9.026;2024-02-16T01:07:21;10.40;99.90
30150;DHT22;16962;48.646;9.026;2024-02-16T01:10:10;10.50;99.90
30150;DHT22;16962;48.646;9.026;2024-02-16T01:12:57;10.50;99.90
30150;DHT22;16962;48.646;9.026;2024-02-16T01:15:45;10.50;99.90
30150;DHT22;16962;48.646;9.026;2024-02-16T01:18:34;10.50;99.90
30150;DHT22;16962;48.646;9.026;2024-02-16T01:21:25;10.60;99.90
30150;DHT22;16962;48.646;9.026;2024-02-16T01:24:14;10.50;99.90
30150;DHT22;16962;48.646;9.026;2024-02-16T01:27:01;10.60;99.90
30150;DHT22;16962;48.646;9.026;2024-02-16T01:29:49;10.50;99.90
30150;DHT22;16962;48.646;9.026;2024-02-16T01:32:37;10.60;99.90
30150;DHT22;16962;48.646;9.026;2024-02-16T01:35:25;10.60;99.90
30150;DHT22;16962;48.646;9.026;2024-02-16T01:38:14;10.60;99.90
30150;DHT22;16962;48.646;9.026;2024-02-16T01:41:01;10.60;99.90
30150;DHT22;16962;48.646;9.026;2024-02-16T01:43:52;10.50;99.90
30150;DHT22;16962;48.646;9.026;2024-02-16T01:46:40;10.40;99.90
30150;DHT22;16962;48.646;9.026;2024-02-16T01:49:28;10.40;99.90
30150;DHT22;16962;48.646;9.026;2024-02-16T01:52:16;10.40;99.90
30150;DHT22;16962;48.646;9.026;2024-02-16T01:55:04;10.40;99.90
30150;DHT22;16962;48.646;9.026;2024-02-16T01:57:58;10.40;99.90
30150;DHT22;16962;48.646;9.026;2024-02-16T02:00:47;10.40;99.90
30150;DHT22;16962;48.646;9.026;2024-02-16T02:03:35;10.50;99.90
30150;DHT22;16962;48.646;9.026;2024-02-16T02:06:23;10.50;99.90
30150;DHT22;16962;48.646;9.026;2024-02-16T02:09:10;10.60;99.90
30150;DHT22;16962;48.646;9.026;2024-02-16T02:11:58;10.50;99.90
30150;DHT22;16962;48.646;9.026;2024-02-16T02:14:46;10.50;99.90
30150;DHT22;16962;48.646;9.026;2024-02-16T02:17:34;10.50;99.90
30150;DHT22;16962;48.646;9.026;2024-02-16T02:20:21;10.50;99.90
30150;DHT22;16962;48.646;9.026;2024-02-16T02:23:09;10.50;99.90
30150;DHT22;16962;48.646;9.026;2024-02-16T02:25:57;10.50;99.90
30150;DHT22;16962;48.646;9.026;2024-02-16T02:28:44;10.50;99.90
30150;DHT22;16962;48.646;9.026;2024-02-16T02:31:33;10.50;99.90
30150;DHT22;16962;48.646;9.026;2024-02-16T02:34:20;10.40;99.90
30150;DHT22;16962;48.646;9.026;2024-02-16T02:37:08;10.40;99.90
30150;DHT22;16962;48.646;9.026;2024-02-16T02:39:56;10.40;99.90
30150;DHT22;16962;48.646;9.026;2024-02-16T02:42:44;10.40;99.90
30150;DHT22;16962;48.646;9.026;2024-02-16T02:45:32;10.40;99.90
30150;DHT22;16962;48.646;9.026;2024-02-16T02:48:21;10.40;99.90
30150;DHT22;16962;48.646;9.026;2024-02-16T02:51:09;10.40;99.90
30150;DHT22;16962;48.646;9.026;2024-02-16T02:53:57;10.40;99.90
30150;DHT22;16962;48.646;9.026;2024-02-16T02:56:45;10.40;99.90
30150;DHT22;16962;48.646;9.026;2024-02-16T02:59:34;10.40;99.90
30150;DHT22;16962;48.646;9.026;2024-02-16T03:02:24;10.40;99.90
30150;DHT22;16962;48.646;9.026;2024-02-16T03:05:14;10.50;99.90
30150;DHT22;16962;48.646;9.026;2024-02-16T03:08:02;10.50;99.90
30150;DHT22;16962;48.646;9.026;2024-02-16T03:10:50;10.50;99.90
30150;DHT22;16962;48.646;9.026;2024-02-16T03:13:38;10.40;99.90
30150;DHT22;16962;48.646;9.026;2024-02-16T03:16:26;10.40;99.90
30150;DHT22;16962;48.646;9.026;2024-02-16T03:19:14;10.30;99.90
30150;DHT22;16962;48.646;9.026;2024-02-16T03:22:03;10.30;99.90
30150;DHT22;16962;48.646;9.026;2024-02-16T03:24:51;10.40;99.90
30150;DHT22;16962;48.646;9.026;2024-02-16T03:27:39;10.50;99.90
30150;DHT22;16962;48.646;9.026;2024-02-16T03:30:27;10.50;99.90
30150;DHT22;16962;48.646;9.026;2024-02-16T03:33:14;10.50;99.90
30150;DHT22;16962;48.646;9.026;2024-02-16T03:36:05;10.40;99.90
30150;DHT22;16962;48.646;9.026;2024-02-16T03:38:52;10.30;99.90
30150;DHT22;16962;48.646;9.026;2024-02-16T03:41:40;10.30;99.90
30150;DHT22;16962;48.646;9.026;2024-02-16T03:44:29;10.20;99.90
30150;DHT22;16962;48.646;9.026;2024-02-16T03:47:17;10.10;99.90
30150;DHT22;16962;48.646;9.026;2024-02-16T03:50:05;10.10;99.90
30150;DHT22;16962;48.646;9.026;2024-02-16T03:52:54;10.00;99.90
30150;DHT22;16962;48.646;9.026;2024-02-16T03:55:41;10.00;99.90
30150;DHT22;16962;48.646;9.026;2024-02-16T03:58:29;10.00;99.90
30150;DHT22;16962;48.646;9.026;2024-02-16T04:01:16;10.00;99.90
30150;DHT22;16962;48.646;9.026;2024-02-16T04:04:04;10.00;99.90
30150;DHT22;16962;48.646;9.026;2024-02-16T04:06:51;10.00;99.90
30150;DHT22;16962;48.646;9.026;2024-02-16T04:09:40;10.00;99.90
30150;DHT22;16962;48.646;9.026;2024-02-16T04:12:28;10.00;99.90
30150;DHT22;16962;48.646;9.026;2024-02-16T04:15:16;10.00;99.90
30150;DHT22;16962;48.646;9.026;2024-02-16T04:18:04;9.90;99.90
30150;DHT22;16962;48.646;9.026;2024-02-16T04:20:52;9.80;99.90
30150;DHT22;16962;48.646;9.026;2024-02-16T04:23:41;9.70;99.90
30150;DHT22;16962;48.646;9.026;2024-02-16T04:26:28;9.60;99.90
30150;DHT22;16962;48.646;9.026;2024-02-16T04:29:16;9.50;99.90
30150;DHT22;16962;48.646;9.026;2024-02-16T04:32:05;9.50;99.90
30150;DHT22;16962;48.646;9.026;2024-02-16T04:34:52;9.50;99.90
30150;DHT22;16962;48.646;9.026;2024-02-16T04:37:40;9.50;99.90
30150;DHT22;16962;48.646;9.026;2024-02-16T04:40:28;9.50;99.90
30150;DHT22;16962;48.646;9.026;2024-02-16T04:43:20;9.60;99.90
30150;DHT22;16962;48.646;9.026;2024-02-16T04:46:14;9.60;99.90
30150;DHT22;16962;48.646;9.026;2024-02-16T04:49:02;9.60;99.90
30150;DHT22;16962;48.646;9.026;2024-02-16T04:51:50;9.60;99.90
30150;DHT22;16962;48.646;9.026;2024-02-16T04:54:37;9.60;99.90
30150;DHT22;16962;48.646;9.026;2024-02-16T04:57:30;9.50;99.90
30150;DHT22;16962;48.646;9.026;2024-02-16T05:00:19;9.50;99.90
30150;DHT22;16962;48.646;9.026;2024-02-16T05:03:08;9.50;99.90
30150;DHT22;16962;48.646;9.026;2024-02-16T05:05:56;9.50;99.90
30150;DHT22;16962;48.646;9.026;2024-02-16T05:08:45;9.50;99.90
30150;DHT22;16962;48.646;9.026;2024-02-16T05:11:33;9.60;99.90
30150;DHT22;16962;48.646;9.026;2024-02-16T05:14:20;9.60;99.90
30150;DHT22;16962;48.646;9.026;2024-02-16T05:17:08;9.60;99.90
30150;DHT22;16962;48.646;9.026;2024-02-16T05:19:56;9.60;99.90
30150;DHT22;16962;48.646;9.026;2024-02-16T05:22:47;9.50;99.90
30150;DHT22;16962;48.646;9.026;2024-02-16T05:25:37;9.50;99.90
30150;DHT22;16962;48.646;9.026;2024-02-16T05:28:26;9.60;99.90
30150;DHT22;16962;48.646;9.026;2024-02-16T05:31:16;9.60;99.90
30150;DHT22;16962;48.646;9.026;2024-02-16T05:34:04;9.60;99.90
30150;DHT22;16962;48.646;9.026;2024-02-16T05:36:52;9.60;99.90
30150;DHT22;16962;48.646;9.026;2024-02-16T05:39:44;9.60;99.90
30150;DHT22;16962;48.646;9.026;2024-02-16T05:42:48;9.60;99.90
30150;DHT22;16962;48.646;9.026;2024-02-16T05:45:36;9.60;99.90
30150;DHT22;16962;48.646;9.026;2024-02-16T05:48:25;9.60;99.90
30150;DHT22;16962;48.646;9.026;2024-02-16T05:51:14;9.60;99.90
30150;DHT22;16962;48.646;9.026;2024-02-16T05:54:06;9.50;99.90
30150;DHT22;16962;48.646;9.026;2024-02-16T05:56:55;9.50;99.90
30150;DHT22;16962;48.646;9.026;2024-02-16T05:59:43;9.40;99.90
30150;DHT22;16962;48.646;9.026;2024-02-16T06:02:34;9.40;99.90
30150;DHT22;16962;48.646;9.026;2024-02-16T06:05:22;9.40;99.90
30150;DHT22;16962;48.646;9.026;2024-02-16T06:08:11;9.40;99.90
30150;DHT22;16962;48.646;9.026;2024-02-16T06:11:03;9.40;99.90
30150;DHT22;16962;48.646;9.026;2024-02-16T06:13:51;9.30;99.90
30150;DHT22;16962;48.646;9.026;2024-02-16T06:16:40;9.30;99.90
30150;DHT22;16962;48.646;9.026;2024-02-16T06:19:29;9.40;99.90
30150;DHT22;16962;48.646;9.026;2024-02-16T06:22:18;9.40;99.90
30150;DHT22;16962;48.646;9.026;2024-02-16T06:25:09;9.40;99.90
30150;DHT22;16962;48.646;9.026;2024-02-16T06:27:58;9.40;99.90
30150;DHT22;16962;48.646;9.026;2024-02-16T06:30:46;9.50;99.90
30150;DHT22;16962;48.646;9.026;2024-02-16T06:33:35;9.50;99.90
30150;DHT22;16962;48.646;9.026;2024-02-16T06:36:23;9.60;99.90
30150;DHT22;16962;48.646;9.026;2024-02-16T06:39:12;9.70;99.90
30150;DHT22;16962;48.646;9.026;2024-02-16T06:42:06;9.80;99.90
30150;DHT22;16962;48.646;9.026;2024-02-16T06:44:53;9.80;99.90
30150;DHT22;16962;48.646;9.026;2024-02-16T06:47:41;9.80;99.90
30150;DHT22;16962;48.646;9.026;2024-02-16T06:50:29;9.80;99.90
30150;DHT22;16962;48.646;9.026;2024-02-16T06:53:16;9.90;99.90
30150;DHT22;16962;48.646;9.026;2024-02-16T06:56:04;9.90;99.90
30150;DHT22;16962;48.646;9.026;2024-02-16T06:58:52;10.00;99.90
30150;DHT22;16962;48.646;9.026;2024-02-16T07:01:41;10.00;99.90
30150;DHT22;16962;48.646;9.026;2024-02-16T07:04:29;10.10;99.90
30150;DHT22;16962;48.646;9.026;2024-02-16T07:07:16;10.20;99.90
30150;DHT22;16962;48.646;9.026;2024-02-16T07:10:06;10.20;99.90
30150;DHT22;16962;48.646;9.026;2024-02-16T07:12:54;10.20;99.90
30150;DHT22;16962;48.646;9.026;2024-02-16T07:15:42;10.20;99.90
30150;DHT22;16962;48.646;9.026;2024-02-16T07:18:30;10.30;99.90
30150;DHT22;16962;48.646;9.026;2024-02-16T07:21:20;10.40;99.90
30150;DHT22;16962;48.646;9.026;2024-02-16T07:24:10;10.50;99.90
30150;DHT22;16962;48.646;9.026;2024-02-16T07:27:11;10.60;99.90
30150;DHT22;16962;48.646;9.026;2024-02-16T07:29:58;10.60;99.90
30150;DHT22;16962;48.646;9.026;2024-02-16T07:32:49;10.60;99.90
30150;DHT22;16962;48.646;9.026;2024-02-16T07:35:40;10.70;99.90
30150;DHT22;16962;48.646;9.026;2024-02-16T07:38:28;10.90;99.90
30150;DHT22;16962;48.646;9.026;2024-02-16T07:41:16;11.20;99.90
30150;DHT22;16962;48.646;9.026;2024-02-16T07:44:04;11.50;99.90
30150;DHT22;16962;48.646;9.026;2024-02-16T07:46:52;11.60;99.90
30150;DHT22;16962;48.646;9.026;2024-02-16T07:49:40;11.80;99.90
30150;DHT22;16962;48.646;9.026;2024-02-16T07:52:30;11.80;99.90
30150;DHT22;16962;48.646;9.026;2024-02-16T07:55:17;11.70;99.90
30150;DHT22;16962;48.646;9.026;2024-02-16T07:58:08;11.60;99.90
30150;DHT22;16962;48.646;9.026;2024-02-16T08:00:57;11.80;99.90
30150;DHT22;16962;48.646;9.026;2024-02-16T08:03:45;11.90;99.90
30150;DHT22;16962;48.646;9.026;2024-02-16T08:06:33;12.00;99.90
30150;DHT22;16962;48.646;9.026;2024-02-16T08:09:22;12.20;99.90
30150;DHT22;16962;48.646;9.026;2024-02-16T08:12:10;12.50;99.90
30150;DHT22;16962;48.646;9.026;2024-02-16T08:14:58;12.60;99.90
30150;DHT22;16962;48.646;9.026;2024-02-16T08:17:46;12.70;99.90
30150;DHT22;16962;48.646;9.026;2024-02-16T08:20:34;12.80;99.90
30150;DHT22;16962;48.646;9.026;2024-02-16T08:23:23;13.00;99.90
30150;DHT22;16962;48.646;9.026;2024-02-16T08:26:11;13.20;99.90
30150;DHT22;16962;48.646;9.026;2024-02-16T08:28:59;13.30;99.90
30150;DHT22;16962;48.646;9.026;2024-02-16T08:31:50;13.50;99.90
30150;DHT22;16962;48.646;9.026;2024-02-16T08:34:38;13.50;97.80
30150;DHT22;16962;48.646;9.026;2024-02-16T08:37:27;13.80;96.40
30150;DHT22;16962;48.646;9.026;2024-02-16T08:40:15;13.90;93.80
30150;DHT22;16962;48.646;9.026;2024-02-16T08:43:03;13.90;90.70
30150;DHT22;16962;48.646;9.026;2024-02-16T08:45:52;14.20;83.60
30150;DHT22;16962;48.646;9.026;2024-02-16T08:48:39;14.70;79.80
30150;DHT22;16962;48.646;9.026;2024-02-16T08:51:27;15.40;70.50
30150;DHT22;16962;48.646;9.026;2024-02-16T08:54:16;15.50;58.00
30150;DHT22;16962;48.646;9.026;2024-02-16T08:57:09;15.60;51.80
30150;DHT22;16962;48.646;9.026;2024-02-16T08:59:57;15.60;48.90
30150;DHT22;16962;48.646;9.026;2024-02-16T09:02:46;15.50;43.60
30150;DHT22;16962;48.646;9.026;2024-02-16T09:05:35;15.50;41.60
30150;DHT22;16962;48.646;9.026;2024-02-16T09:08:23;15.60;41.80
30150;DHT22;16962;48.646;9.026;2024-02-16T09:11:13;15.70;33.40
30150;DHT22;16962;48.646;9.026;2024-02-16T09:14:01;15.50;34.50
30150;DHT22;16962;48.646;9.026;2024-02-16T09:16:52;15.80;34.50
30150;DHT22;16962;48.646;9.026;2024-02-16T09:19:41;16.00;30.50
30150;DHT22;16962;48.646;9.026;2024-02-16T09:22:32;16.00;31.00
30150;DHT22;16962;48.646;9.026;2024-02-16T09:25:24;16.60;26.60
30150;DHT22;16962;48.646;9.026;2024-02-16T09:28:12;17.30;23.60
30150;DHT22;16962;48.646;9.026;2024-02-16T09:31:15;17.60;17.30
30150;DHT22;16962;48.646;9.026;2024-02-16T09:34:03;17.40;17.10
30150;DHT22;16962;48.646;9.026;2024-02-16T09:36:51;17.70;13.70
30150;DHT22;16962;48.646;9.026;2024-02-16T09:39:39;17.60;11.00
30150;DHT22;16962;48.646;9.026;2024-02-16T09:42:29;17.00;6.30
30150;DHT22;16962;48.646;9.026;2024-02-16T09:45:17;16.50;7.80
30150;DHT22;16962;48.646;9.026;2024-02-16T09:48:09;16.20;9.00
30150;DHT22;16962;48.646;9.026;2024-02-16T09:50:58;16.20;11.80
30150;DHT22;16962;48.646;9.026;2024-02-16T09:53:50;16.90;12.70
30150;DHT22;16962;48.646;9.026;2024-02-16T09:56:45;17.10;8.40
30150;DHT22;16962;48.646;9.026;2024-02-16T09:59:37;16.90;6.90
30150;DHT22;16962;48.646;9.026;2024-02-16T10:02:24;16.50;7.50
30150;DHT22;16962;48.646;9.026;2024-02-16T10:05:12;16.20;8.80
30150;DHT22;16962;48.646;9.026;2024-02-16T10:08:11;15.80;11.40
30150;DHT22;16962;48.646;9.026;2024-02-16T10:11:03;15.60;14.60
30150;DHT22;16962;48.646;9.026;2024-02-16T10:17:02;15.40;18.70
30150;DHT22;16962;48.646;9.026;2024-02-16T10:19:57;15.30;23.80
30150;DHT22;16962;48.646;9.026;2024-02-16T10:22:44;15.30;25.10
30150;DHT22;16962;48.646;9.026;2024-02-16T10:25:36;15.20;25.40
30150;DHT22;16962;48.646;9.026;2024-02-16T10:28:24;15.20;27.90
30150;DHT22;16962;48.646;9.026;2024-02-16T10:31:15;15.20;33.30
30150;DHT22;16962;48.646;9.026;2024-02-16T10:34:05;15.10;33.10
30150;DHT22;16962;48.646;9.026;2024-02-16T10:36:54;14.90;35.90
30150;DHT22;16962;48.646;9.026;2024-02-16T10:39:45;14.70;39.90
30150;DHT22;16962;48.646;9.026;2024-02-16T10:42:36;14.60;43.30
30150;DHT22;16962;48.646;9.026;2024-02-16T10:45:26;14.60;48.50
30150;DHT22;16962;48.646;9.026;2024-02-16T10:48:13;14.60;50.00
30150;DHT22;16962;48.646;9.026;2024-02-16T10:51:05;14.50;51.00
30150;DHT22;16962;48.646;9.026;2024-02-16T10:53:59;14.60;55.40
30150;DHT22;16962;48.646;9.026;2024-02-16T10:57:07;14.70;58.20
30150;DHT22;16962;48.646;9.026;2024-02-16T10:59:55;14.80;58.60
30150;DHT22;16962;48.646;9.026;2024-02-16T11:02:54;14.90;58.60
30150;DHT22;16962;48.646;9.026;2024-02-16T11:05:43;14.90;58.80
30150;DHT22;16962;48.646;9.026;2024-02-16T11:08:38;15.00;57.50
30150;DHT22;16962;48.646;9.026;2024-02-16T11:11:26;15.10;57.50
30150;DHT22;16962;48.646;9.026;2024-02-16T11:14:17;15.60;56.30
30150;DHT22;16962;48.646;9.026;2024-02-16T11:17:12;16.20;51.40
30150;DHT22;16962;48.646;9.026;2024-02-16T11:20:00;17.20;41.80
30150;DHT22;16962;48.646;9.026;2024-02-16T11:22:51;17.30;30.40
30150;DHT22;16962;48.646;9.026;2024-02-16T11:26:04;17.50;27.00
30150;DHT22;16962;48.646;9.026;2024-02-16T11:28:54;17.60;21.90
30150;DHT22;16962;48.646;9.026;2024-02-16T11:31:43;17.60;21.40
30150;DHT22;16962;48.646;9.026;2024-02-16T11:34:31;17.90;18.90
30150;DHT22;16962;48.646;9.026;2024-02-16T11:37:20;18.20;13.80
30150;DHT22;16962;48.646;9.026;2024-02-16T11:40:11;18.60;21.80
30150;DHT22;16962;48.646;9.026;2024-02-16T11:43:00;18.60;14.40
30150;DHT22;16962;48.646;9.026;2024-02-16T11:45:49;19.00;5.30
30150;DHT22;16962;48.646;9.026;2024-02-16T11:48:37;19.20;1.00
30150;DHT22;16962;48.646;9.026;2024-02-16T11:51:25;19.00;1.00
30150;DHT22;16962;48.646;9.026;2024-02-16T11:54:14;19.20;1.00
30150;DHT22;16962;48.646;9.026;2024-02-16T11:57:04;19.50;4.30
30150;DHT22;16962;48.646;9.026;2024-02-16T11:59:53;19.40;1.00
30150;DHT22;16962;48.646;9.026;2024-02-16T12:02:41;19.20;1.00
30150;DHT22;16962;48.646;9.026;2024-02-16T12:05:36;19.10;1.00
30150;DHT22;16962;48.646;9.026;2024-02-16T12:08:32;19.00;1.00
30150;DHT22;16962;48.646;9.026;2024-02-16T12:11:21;19.20;1.00
30150;DHT22;16962;48.646;9.026;2024-02-16T12:14:13;19.40;1.00
30150;DHT22;16962;48.646;9.026;2024-02-16T12:17:00;19.60;1.00
30150;DHT22;16962;48.646;9.026;2024-02-16T12:19:50;19.60;1.00
30150;DHT22;16962;48.646;9.026;2024-02-16T12:22:38;19.10;1.00
30150;DHT22;16962;48.646;9.026;2024-02-16T12:25:27;19.00;1.00
30150;DHT22;16962;48.646;9.026;2024-02-16T12:28:15;19.00;1.00
30150;DHT22;16962;48.646;9.026;2024-02-16T12:31:02;18.60;1.00
30150;DHT22;16962;48.646;9.026;2024-02-16T12:33:50;18.40;1.00
30150;DHT22;16962;48.646;9.026;2024-02-16T12:36:42;18.50;1.00
30150;DHT22;16962;48.646;9.026;2024-02-16T12:39:35;18.40;1.00
30150;DHT22;16962;48.646;9.026;2024-02-16T12:42:22;17.70;1.20
30150;DHT22;16962;48.646;9.026;2024-02-16T12:45:12;16.90;5.30
30150;DHT22;16962;48.646;9.026;2024-02-16T12:48:00;16.50;11.90
30150;DHT22;16962;48.646;9.026;2024-02-16T12:50:49;16.10;20.30
30150;DHT22;16962;48.646;9.026;2024-02-16T12:53:38;16.10;22.40
30150;DHT22;16962;48.646;9.026;2024-02-16T12:56:30;16.00;32.10
30150;DHT22;16962;48.646;9.026;2024-02-16T12:59:18;15.90;30.70
30150;DHT22;16962;48.646;9.026;2024-02-16T13:02:06;15.90;34.60
30150;DHT22;16962;48.646;9.026;2024-02-16T13:04:53;16.10;38.20
30150;DHT22;16962;48.646;9.026;2024-02-16T13:07:42;16.10;35.90
30150;DHT22;16962;48.646;9.026;2024-02-16T13:10:33;16.10;35.00
30150;DHT22;16962;48.646;9.026;2024-02-16T13:13:25;16.00;37.00
30150;DHT22;16962;48.646;9.026;2024-02-16T13:16:14;16.10;43.80
30150;DHT22;16962;48.646;9.026;2024-02-16T13:19:02;16.20;41.70
30150;DHT22;16962;48.646;9.026;2024-02-16T13:21:51;16.10;42.60
30150;DHT22;16962;48.646;9.026;2024-02-16T13:24:42;16.30;44.30
30150;DHT22;16962;48.646;9.026;2024-02-16T13:27:30;16.10;44.40
30150;DHT22;16962;48.646;9.026;2024-02-16T13:30:19;16.10;48.30
30150;DHT22;16962;48.646;9.026;2024-02-16T13:33:08;16.10;51.70
30150;DHT22;16962;48.646;9.026;2024-02-16T13:35:57;16.00;64.70
30150;DHT22;16962;48.646;9.026;2024-02-16T13:38:45;15.90;56.20
30150;DHT22;16962;48.646;9.026;2024-02-16T13:41:33;15.90;66.80
30150;DHT22;16962;48.646;9.026;2024-02-16T13:44:21;15.90;63.10
30150;DHT22;16962;48.646;9.026;2024-02-16T13:47:11;15.90;71.40
30150;DHT22;16962;48.646;9.026;2024-02-16T13:50:02;15.80;69.40
30150;DHT22;16962;48.646;9.026;2024-02-16T13:52:49;15.80;68.80
30150;DHT22;16962;48.646;9.026;2024-02-16T13:55:39;15.90;71.50
30150;DHT22;16962;48.646;9.026;2024-02-16T13:58:26;15.90;74.30
30150;DHT22;16962;48.646;9.026;2024-02-16T14:01:17;16.00;81.00
30150;DHT22;16962;48.646;9.026;2024-02-16T14:04:04;16.10;83.20
30150;DHT22;16962;48.646;9.026;2024-02-16T14:06:52;16.30;78.80
30150;DHT22;16962;48.646;9.026;2024-02-16T14:09:41;16.40;75.70
30150;DHT22;16962;48.646;9.026;2024-02-16T14:12:30;16.30;72.80
30150;DHT22;16962;48.646;9.026;2024-02-16T14:15:18;16.20;77.20
30150;DHT22;16962;48.646;9.026;2024-02-16T14:18:07;16.20;77.10
30150;DHT22;16962;48.646;9.026;2024-02-16T14:21:04;16.20;78.60
30150;DHT22;16962;48.646;9.026;2024-02-16T14:23:52;16.00;80.60
30150;DHT22;16962;48.646;9.026;2024-02-16T14:26:40;16.00;84.10
30150;DHT22;16962;48.646;9.026;2024-02-16T14:29:29;16.00;82.60
30150;DHT22;16962;48.646;9.026;2024-02-16T14:32:17;16.00;87.00
30150;DHT22;16962;48.646;9.026;2024-02-16T14:35:06;16.10;85.10
30150;DHT22;16962;48.646;9.026;2024-02-16T14:37:54;16.20;83.80
30150;DHT22;16962;48.646;9.026;2024-02-16T14:40:43;16.20;83.30
30150;DHT22;16962;48.646;9.026;2024-02-16T14:43:32;16.20;83.40
30150;DHT22;16962;48.646;9.026;2024-02-16T14:46:25;16.10;81.30
30150;DHT22;16962;48.646;9.026;2024-02-16T14:49:13;16.20;81.50
30150;DHT22;16962;48.646;9.026;2024-02-16T14:52:09;16.10;79.10
30150;DHT22;16962;48.646;9.026;2024-02-16T14:54:57;16.10;85.80
30150;DHT22;16962;48.646;9.026;2024-02-16T14:57:44;15.90;90.60
30150;DHT22;16962;48.646;9.026;2024-02-16T15:00:32;15.90;93.10
30150;DHT22;16962;48.646;9.026;2024-02-16T15:03:21;15.90;96.00
30150;DHT22;16962;48.646;9.026;2024-02-16T15:06:09;15.80;98.00
30150;DHT22;16962;48.646;9.026;2024-02-16T15:08:56;15.60;99.90
30150;DHT22;16962;48.646;9.026;2024-02-16T15:11:45;15.60;99.90
30150;DHT22;16962;48.646;9.026;2024-02-16T15:14:34;15.50;99.90
30150;DHT22;16962;48.646;9.026;2024-02-16T15:17:23;15.50;99.90
30150;DHT22;16962;48.646;9.026;2024-02-16T15:20:13;15.40;99.90
30150;DHT22;16962;48.646;9.026;2024-02-16T15:23:01;15.40;99.90
30150;DHT22;16962;48.646;9.026;2024-02-16T15:25:49;15.40;99.90
30150;DHT22;16962;48.646;9.026;2024-02-16T15:28:36;15.30;99.90
30150;DHT22;16962;48.646;9.026;2024-02-16T15:31:27;15.20;99.90
30150;DHT22;16962;48.646;9.026;2024-02-16T15:34:18;15.20;99.90
30150;DHT22;16962;48.646;9.026;2024-02-16T15:37:07;15.00;99.90
30150;DHT22;16962;48.646;9.026;2024-02-16T15:39:55;15.00;99.90
30150;DHT22;16962;48.646;9.026;2024-02-16T15:43:01;14.90;99.90
30150;DHT22;16962;48.646;9.026;2024-02-16T15:45:49;14.90;99.90
30150;DHT22;16962;48.646;9.026;2024-02-16T15:48:37;14.80;99.90
30150;DHT22;16962;48.646;9.026;2024-02-16T15:51:25;14.70;99.90
30150;DHT22;16962;48.646;9.026;2024-02-16T15:54:14;14.70;99.90
30150;DHT22;16962;48.646;9.026;2024-02-16T15:57:01;14.60;99.90
30150;DHT22;16962;48.646;9.026;2024-02-16T15:59:50;14.60;99.90
30150;DHT22;16962;48.646;9.026;2024-02-16T16:02:38;14.50;99.90
30150;DHT22;16962;48.646;9.026;2024-02-16T16:05:25;14.40;99.90
30150;DHT22;16962;48.646;9.026;2024-02-16T16:08:17;14.30;99.90
30150;DHT22;16962;48.646;9.026;2024-02-16T16:11:06;14.30;99.90
30150;DHT22;16962;48.646;9.026;2024-02-16T16:13:53;14.20;99.90
30150;DHT22;16962;48.646;9.026;2024-02-16T16:16:41;14.20;99.90
30150;DHT22;16962;48.646;9.026;2024-02-16T16:19:29;14.20;99.90
30150;DHT22;16962;48.646;9.026;2024-02-16T16:22:18;14.10;99.90
30150;DHT22;16962;48.646;9.026;2024-02-16T16:25:06;14.10;99.90
30150;DHT22;16962;48.646;9.026;2024-02-16T16:27:54;14.00;99.90
30150;DHT22;16962;48.646;9.026;2024-02-16T16:30:44;14.00;99.90
30150;DHT22;16962;48.646;9.026;2024-02-16T16:33:34;13.90;99.90
30150;DHT22;16962;48.646;9.026;2024-02-16T16:36:23;13.90;99.90
30150;DHT22;16962;48.646;9.026;2024-02-16T16:39:14;13.80;99.90
30150;DHT22;16962;48.646;9.026;2024-02-16T16:42:05;13.80;99.90
30150;DHT22;16962;48.646;9.026;2024-02-16T16:44:53;13.80;99.90
30150;DHT22;16962;48.646;9.026;2024-02-16T16:47:41;13.70;99.90
30150;DHT22;16962;48.646;9.026;2024-02-16T16:50:30;13.70;99.90
30150;DHT22;16962;48.646;9.026;2024-02-16T16:53:18;13.70;99.90
30150;DHT22;16962;48.646;9.026;2024-02-16T16:56:08;13.70;99.90
30150;DHT22;16962;48.646;9.026;2024-02-16T16:58:56;13.60;99.90
30150;DHT22;16962;48.646;9.026;2024-02-16T17:01:47;13.60;99.90
30150;DHT22;16962;48.646;9.026;2024-02-16T17:04:34;13.60;99.90
30150;DHT22;16962;48.646;9.026;2024-02-16T17:07:23;13.50;99.90
30150;DHT22;16962;48.646;9.026;2024-02-16T17:10:11;13.50;99.90
30150;DHT22;16962;48.646;9.026;2024-02-16T17:13:00;13.50;99.90
30150;DHT22;16962;48.646;9.026;2024-02-16T17:15:49;13.40;99.90
30150;DHT22;16962;48.646;9.026;2024-02-16T17:18:39;13.40;99.90
30150;DHT22;16962;48.646;9.026;2024-02-16T17:21:27;13.40;99.90
30150;DHT22;16962;48.646;9.026;2024-02-16T17:24:17;13.30;99.90
30150;DHT22;16962;48.646;9.026;2024-02-16T17:27:05;13.30;99.90
30150;DHT22;16962;48.646;9.026;2024-02-16T17:29:55;13.20;99.90
30150;DHT22;16962;48.646;9.026;2024-02-16T17:32:42;13.20;99.90
30150;DHT22;16962;48.646;9.026;2024-02-16T17:35:30;13.10;99.90
30150;DHT22;16962;48.646;9.026;2024-02-16T17:38:17;13.10;99.90
30150;DHT22;16962;48.646;9.026;2024-02-16T17:41:06;13.10;99.90
30150;DHT22;16962;48.646;9.026;2024-02-16T17:43:53;13.10;99.90
30150;DHT22;16962;48.646;9.026;2024-02-16T17:46:43;13.10;99.90
30150;DHT22;16962;48.646;9.026;2024-02-16T17:49:30;13.00;99.90
30150;DHT22;16962;48.646;9.026;2024-02-16T17:52:19;13.00;99.90
30150;DHT22;16962;48.646;9.026;2024-02-16T17:55:11;13.00;99.90
30150;DHT22;16962;48.646;9.026;2024-02-16T17:57:58;13.00;99.90